createdAt,value
2022-10-23T00:01:34.659Z,100145.78
2022-10-23T00:04:07.849Z,100144.19
2022-10-23T00:06:42.419Z,100141.53
2022-10-23T00:09:17.114Z,100097.66
2022-10-23T00:11:47.960Z,100148.84
2022-10-23T00:14:36.142Z,100133.72
2022-10-23T00:17:10.693Z,100152.50
2022-10-23T00:19:42.378Z,100148.22
2022-10-23T00:22:19.441Z,100109.81
2022-10-23T00:24:48.041Z,100119.06
2022-10-23T00:27:15.892Z,100087.75
2022-10-23T00:29:48.840Z,100097.91
2022-10-23T00:32:23.238Z,100097.22
2022-10-23T00:34:51.185Z,100059.53
2022-10-23T00:37:27.852Z,100102.56
2022-10-23T00:40:02.411Z,100103.31
2022-10-23T00:43:22.881Z,100105.72
2022-10-23T00:45:55.933Z,100113.72
2022-10-23T00:48:24.272Z,100098.44
2022-10-23T00:51:23.049Z,100095.50
2022-10-23T00:54:01.209Z,100091.31
2022-10-23T00:56:44.982Z,100056.41
2022-10-23T00:59:15.371Z,100052.00
2022-10-23T01:02:16.087Z,100088.72
2022-10-23T01:04:43.802Z,100098.22
2022-10-23T01:08:02.842Z,100064.16
2022-10-23T01:10:44.776Z,100051.41
2022-10-23T01:13:21.322Z,100029.91
2022-10-23T01:16:01.962Z,100044.56
2022-10-23T01:18:44.394Z,100034.28
2022-10-23T01:21:52.939Z,100033.53
2022-10-23T01:24:29.524Z,100064.97
2022-10-23T01:27:18.664Z,100057.31
2022-10-23T01:29:58.101Z,100080.88
2022-10-23T01:32:51.049Z,100051.56
2022-10-23T01:35:39.035Z,100039.88
2022-10-23T01:38:18.004Z,100041.47
2022-10-23T01:41:04.358Z,100036.34
2022-10-23T01:43:59.011Z,100018.09
2022-10-23T01:46:42.829Z,100015.66
2022-10-23T01:49:20.918Z,100018.31
2022-10-23T01:52:06.133Z,100007.31
2022-10-23T01:54:46.831Z,100013.84
2022-10-23T01:57:32.303Z,100049.31
2022-10-23T02:00:18.600Z,100058.19
2022-10-23T02:05:56.356Z,100020.84
2022-10-23T02:08:27.832Z,100019.13
2022-10-23T02:11:03.867Z,100037.78
2022-10-23T02:13:58.814Z,100037.94
2022-10-23T02:16:40.009Z,100015.16
2022-10-23T02:19:47.098Z,100044.28
2022-10-23T02:22:43.729Z,99999.34
2022-10-23T02:25:38.297Z,100028.47
2022-10-23T02:28:16.376Z,99997.97
2022-10-23T02:30:53.706Z,99996.75
2022-10-23T02:33:24.761Z,100013.38
2022-10-23T02:35:58.800Z,99991.97
2022-10-23T02:38:52.850Z,100003.34
2022-10-23T02:41:59.978Z,100029.44
2022-10-23T02:45:37.404Z,100026.97
2022-10-23T02:49:06.926Z,100010.88
2022-10-23T02:51:18.301Z,99996.50
2022-10-23T02:54:19.210Z,99989.66
2022-10-23T02:57:05.153Z,100017.78
2022-10-23T03:00:03.429Z,99985.41
2022-10-23T03:02:54.791Z,100005.00
2022-10-23T03:05:49.907Z,99987.41
2022-10-23T03:08:17.365Z,100016.25
2022-10-23T03:13:27.933Z,99994.28
2022-10-23T03:16:01.105Z,99984.28
2022-10-23T03:18:28.646Z,99996.16
2022-10-23T03:20:59.739Z,99976.44
2022-10-23T03:23:29.281Z,99961.06
2022-10-23T03:26:13.623Z,99948.34
2022-10-23T03:29:17.721Z,99949.22
2022-10-23T03:31:41.257Z,99973.06
2022-10-23T03:34:11.885Z,99969.03
2022-10-23T03:36:46.761Z,99940.66
2022-10-23T03:39:17.147Z,99943.31
2022-10-23T03:41:51.254Z,99975.81
2022-10-23T03:44:35.813Z,99998.84
2022-10-23T03:47:05.780Z,99972.59
2022-10-23T03:49:42.884Z,99958.81
2022-10-23T03:52:13.286Z,99966.53
2022-10-23T03:54:51.585Z,99942.94
2022-10-23T03:57:21.279Z,99962.13
2022-10-23T03:59:51.193Z,99946.78
2022-10-23T04:02:26.363Z,99962.09
2022-10-23T04:05:02.996Z,99953.16
2022-10-23T04:07:36.308Z,99975.09
2022-10-23T04:10:11.855Z,99947.03
2022-10-23T04:12:51.245Z,99928.41
2022-10-23T04:15:35.905Z,99929.25
2022-10-23T04:18:07.590Z,99955.91
2022-10-23T04:20:49.333Z,99954.81
2022-10-23T04:23:31.460Z,99931.13
2022-10-23T04:26:16.195Z,99939.47
2022-10-23T04:29:14.215Z,99928.63
2022-10-23T04:32:58.461Z,99955.44
2022-10-23T04:35:26.344Z,99917.88
2022-10-23T04:38:03.049Z,99899.91
2022-10-23T04:40:50.824Z,99944.09
2022-10-23T04:43:25.623Z,99910.94
2022-10-23T04:45:58.499Z,99903.06
2022-10-23T04:48:29.278Z,99949.13
2022-10-23T04:51:21.248Z,99944.56
2022-10-23T04:54:27.726Z,99914.91
2022-10-23T04:57:33.930Z,99938.78
2022-10-23T05:03:34.386Z,99928.50
2022-10-23T05:18:40.382Z,99921.38
2022-10-23T05:21:19.052Z,99896.50
2022-10-23T05:23:55.425Z,99916.19
2022-10-23T05:27:28.157Z,99906.66
2022-10-23T06:52:14.480Z,99833.97
2022-10-23T06:58:26.679Z,99810.63
2022-10-23T08:01:40.532Z,99784.66
2022-10-23T08:23:53.949Z,99777.31
2022-10-23T08:26:38.586Z,99774.03
2022-10-23T08:29:09.532Z,99767.97
2022-10-23T08:31:41.851Z,99784.78
2022-10-23T08:34:57.201Z,99784.59
2022-10-23T08:38:23.732Z,99781.75
2022-10-23T08:41:07.524Z,99810.75
2022-10-23T08:47:52.095Z,99789.06
2022-10-23T08:51:58.066Z,99770.66
2022-10-23T08:55:23.935Z,99777.94
2022-10-23T08:58:29.841Z,99734.34
2022-10-23T09:01:38.340Z,99757.03
2022-10-23T09:04:30.999Z,99746.78
2022-10-23T09:07:20.875Z,99757.94
2022-10-23T09:10:31.552Z,99761.06
2022-10-23T09:14:09.947Z,99720.22
2022-10-23T09:17:51.660Z,99753.78
2022-10-23T09:21:31.394Z,99760.16
2022-10-23T10:35:54.761Z,99688.75
2022-10-23T10:43:08.512Z,99665.59
2022-10-23T10:45:46.259Z,99674.59
2022-10-23T10:48:41.306Z,99660.19
2022-10-23T10:52:27.329Z,99671.47
2022-10-23T10:55:40.683Z,99658.00
2022-10-23T10:58:37.200Z,99654.97
2022-10-23T11:02:25.303Z,99656.59
2022-10-23T11:05:23.220Z,99650.53
2022-10-23T11:08:07.265Z,99641.97
2022-10-23T11:10:58.464Z,99651.41
2022-10-23T11:13:51.630Z,99624.16
2022-10-23T11:20:56.684Z,99628.59
2022-10-23T11:24:15.791Z,99619.88
2022-10-23T11:27:14.646Z,99603.88
2022-10-23T11:29:53.916Z,99623.09
2022-10-23T11:33:42.670Z,99616.81
2022-10-23T11:44:03.155Z,99600.28
2022-10-23T11:46:39.436Z,99578.72
2022-10-23T11:49:29.157Z,99613.81
2022-10-23T11:52:50.616Z,99574.66
2022-10-23T11:55:38.651Z,99571.06
2022-10-23T11:58:11.317Z,99590.28
2022-10-23T12:01:35.028Z,99589.41
2022-10-23T12:04:50.060Z,99585.06
2022-10-23T12:07:49.774Z,99581.97
2022-10-23T12:10:57.518Z,99544.00
2022-10-23T12:13:46.843Z,99577.94
2022-10-23T12:16:35.817Z,99538.28
2022-10-23T12:19:32.473Z,99580.81
2022-10-23T12:25:31.402Z,99569.38
2022-10-23T12:28:10.404Z,99570.94
2022-10-23T12:34:54.998Z,99571.13
2022-10-23T12:37:57.385Z,99564.94
2022-10-23T12:40:30.479Z,99534.25
2022-10-23T12:43:09.557Z,99572.53
2022-10-23T12:46:01.431Z,99524.06
2022-10-23T12:48:37.467Z,99572.81
2022-10-23T12:51:33.625Z,99527.72
2022-10-23T12:54:24.113Z,99538.00
2022-10-23T12:56:54.240Z,99528.41
2022-10-23T13:00:00.509Z,99510.00
2022-10-23T13:02:39.169Z,99547.31
2022-10-23T13:05:21.846Z,99523.53
2022-10-23T13:08:08.741Z,99513.09
2022-10-23T13:11:02.398Z,99527.34
2022-10-23T13:13:38.227Z,99509.47
2022-10-23T13:16:26.059Z,99513.09
2022-10-23T13:19:04.312Z,99547.47
2022-10-23T13:21:54.899Z,99504.59
2022-10-23T13:24:34.978Z,99506.50
2022-10-23T13:27:35.008Z,99501.91
2022-10-23T13:30:41.460Z,99505.38
2022-10-23T13:33:32.157Z,99518.56
2022-10-23T13:36:21.837Z,99490.03
2022-10-23T13:39:16.543Z,99486.50
2022-10-23T13:41:52.300Z,99499.16
2022-10-23T13:44:30.334Z,99534.06
2022-10-23T13:47:01.752Z,99487.28
2022-10-23T13:49:34.182Z,99488.97
2022-10-23T13:52:32.716Z,99517.59
2022-10-23T13:55:15.738Z,99483.91
2022-10-23T13:57:52.566Z,99523.25
2022-10-23T14:00:59.015Z,99506.59
2022-10-23T14:03:54.460Z,99502.81
2022-10-23T14:06:31.395Z,99482.19
2022-10-23T14:09:03.672Z,99486.88
2022-10-23T14:11:35.544Z,99506.00
2022-10-23T14:14:04.036Z,99476.44
2022-10-23T14:16:38.735Z,99504.53
2022-10-23T14:19:10.721Z,99505.78
2022-10-23T14:21:40.448Z,99482.66
2022-10-23T14:24:09.203Z,99464.47
2022-10-23T14:27:03.075Z,99469.53
2022-10-23T14:29:44.974Z,99461.00
2022-10-23T14:32:16.671Z,99464.91
2022-10-23T14:34:46.195Z,99476.94
2022-10-23T14:37:22.613Z,99497.25
2022-10-23T14:40:12.773Z,99455.81
2022-10-23T14:42:42.371Z,99445.56
2022-10-23T14:48:45.421Z,99436.09
2022-10-23T14:51:28.483Z,99477.25
2022-10-23T14:54:23.369Z,99451.31
2022-10-23T14:56:51.080Z,99473.41
2022-10-23T14:59:52.449Z,99457.63
2022-10-23T15:02:46.653Z,99425.50
2022-10-23T15:05:46.906Z,99440.53
2022-10-23T15:08:27.095Z,99458.63
2022-10-23T15:11:07.743Z,99459.72
2022-10-23T15:13:50.293Z,99408.94
2022-10-23T15:16:28.244Z,99432.44
2022-10-23T15:19:10.888Z,99419.06
2022-10-23T15:22:12.978Z,99421.00
2022-10-23T15:24:54.552Z,99412.19
2022-10-23T15:27:40.262Z,99417.41
2022-10-23T15:30:24.495Z,99456.03
2022-10-23T15:33:04.158Z,99419.06
2022-10-23T15:35:46.377Z,99436.66
2022-10-23T15:38:28.539Z,99421.16
2022-10-23T15:41:44.016Z,99444.34
2022-10-23T15:44:24.833Z,99415.09
2022-10-23T15:47:23.129Z,99409.66
2022-10-23T15:50:17.871Z,99413.56
2022-10-23T15:52:56.705Z,99400.53
2022-10-23T15:55:55.712Z,99401.53
2022-10-23T15:58:54.909Z,99425.75
2022-10-23T16:01:55.324Z,99418.88
2022-10-23T16:04:29.057Z,99420.03
2022-10-23T16:07:13.495Z,99414.03
2022-10-23T16:09:44.083Z,99410.72
2022-10-23T16:16:00.678Z,99436.03
2022-10-23T16:19:04.111Z,99428.75
2022-10-23T16:22:12.997Z,99429.56
2022-10-23T16:25:03.926Z,99412.69
2022-10-23T16:27:44.094Z,99396.47
2022-10-23T16:31:04.266Z,99381.09
2022-10-23T16:36:55.742Z,99374.78
2022-10-23T16:43:21.473Z,99365.47
2022-10-23T16:46:41.907Z,99379.84
2022-10-23T16:49:38.572Z,99391.28
2022-10-23T16:52:50.907Z,99386.28
2022-10-23T16:55:37.488Z,99357.78
2022-10-23T16:58:51.178Z,99396.34
2022-10-23T17:02:54.267Z,99397.03
2022-10-23T17:05:56.456Z,99365.22
2022-10-23T17:08:52.810Z,99354.88
2022-10-23T17:12:17.571Z,99358.00
2022-10-23T17:15:30.735Z,99389.94
2022-10-23T17:18:12.240Z,99355.63
2022-10-23T17:21:11.825Z,99372.22
2022-10-23T17:23:58.226Z,99348.28
2022-10-23T17:26:38.738Z,99349.16
2022-10-23T17:29:13.022Z,99330.22
2022-10-23T17:31:48.432Z,99334.50
2022-10-23T17:34:33.096Z,99330.97
2022-10-23T17:37:49.178Z,99310.97
2022-10-23T17:43:50.177Z,99316.69
2022-10-23T17:46:59.829Z,99321.31
2022-10-23T17:50:00.172Z,99322.31
2022-10-23T17:55:57.941Z,99344.72
2022-10-23T17:58:33.058Z,99303.31
2022-10-23T18:02:04.154Z,99291.19
2022-10-23T18:05:03.628Z,99310.63
2022-10-23T18:07:42.132Z,99293.28
2022-10-23T18:10:15.030Z,99310.72
2022-10-23T18:12:55.104Z,99305.34
2022-10-23T18:15:45.586Z,99327.78
2022-10-23T18:18:41.242Z,99286.25
2022-10-23T18:25:26.548Z,99319.81
2022-10-23T18:28:09.527Z,99279.25
2022-10-23T18:31:28.903Z,99317.81
2022-10-23T18:34:33.547Z,99292.09
2022-10-23T18:40:13.741Z,99275.00
2022-10-23T18:44:17.172Z,99302.63
2022-10-23T18:46:29.587Z,99283.84
2022-10-23T18:49:11.982Z,99289.13
2022-10-23T18:51:52.675Z,99285.38
2022-10-23T18:54:24.727Z,99274.78
2022-10-23T18:57:06.965Z,99259.44
2022-10-23T18:59:52.432Z,99272.16
2022-10-23T19:02:30.692Z,99293.31
2022-10-23T19:05:08.538Z,99278.09
2022-10-23T19:08:08.663Z,99278.00
2022-10-23T19:10:48.779Z,99258.63
2022-10-23T19:14:11.684Z,99284.06
2022-10-23T19:18:14.226Z,99274.13
2022-10-23T19:21:56.207Z,99246.69
2022-10-23T19:24:25.734Z,99262.78
2022-10-23T19:26:57.462Z,99253.41
2022-10-23T19:29:30.571Z,99239.19
2022-10-23T19:32:17.682Z,99235.25
2022-10-23T19:34:54.349Z,99290.28
2022-10-23T19:37:24.178Z,99243.50
2022-10-23T19:39:54.493Z,99246.63
2022-10-23T19:43:26.171Z,99268.25
2022-10-23T19:45:55.792Z,99243.56
2022-10-23T19:48:29.587Z,99257.22
2022-10-23T19:51:02.657Z,99269.44
2022-10-23T19:53:42.959Z,99245.53
2022-10-23T19:56:17.837Z,99254.44
2022-10-23T19:58:55.426Z,99273.81
2022-10-23T20:02:21.326Z,99270.38
2022-10-23T20:04:56.527Z,99253.78
2022-10-23T20:07:31.966Z,99253.00
2022-10-23T20:10:04.370Z,99212.53
2022-10-23T20:12:47.490Z,99223.66
2022-10-23T20:15:35.893Z,99243.59
2022-10-23T20:18:11.900Z,99251.94
2022-10-23T20:20:43.230Z,99225.16
2022-10-23T20:23:12.004Z,99229.47
2022-10-23T20:25:43.015Z,99224.50
2022-10-23T20:29:10.121Z,99237.72
2022-10-23T20:32:35.574Z,99242.69
2022-10-23T20:35:17.484Z,99216.75
2022-10-23T20:38:10.825Z,99215.56
2022-10-23T20:40:43.851Z,99235.59
2022-10-23T20:44:36.633Z,99240.31
2022-10-23T20:47:47.039Z,99210.84
2022-10-23T20:50:17.672Z,99247.72
2022-10-23T20:53:10.852Z,99228.88
2022-10-23T20:55:55.260Z,99193.69
2022-10-23T20:58:25.395Z,99203.22
2022-10-23T21:00:54.219Z,99229.13
2022-10-23T21:03:30.687Z,99220.34
2022-10-23T21:06:31.499Z,99211.09
2022-10-23T21:12:01.804Z,99204.44
2022-10-23T21:14:52.664Z,99219.59
2022-10-23T21:20:09.102Z,99201.34
2022-10-23T21:23:11.498Z,99224.72
2022-10-23T21:25:43.528Z,99214.38
2022-10-23T21:28:28.627Z,99185.25
2022-10-23T21:31:14.369Z,99194.03
2022-10-23T21:33:59.319Z,99204.44
2022-10-23T21:36:48.247Z,99198.84
2022-10-23T21:39:19.777Z,99195.69
2022-10-23T21:41:52.481Z,99207.25
2022-10-23T21:44:25.880Z,99202.84
2022-10-23T21:46:55.035Z,99197.53
2022-10-23T21:49:28.832Z,99214.38
2022-10-23T21:52:00.834Z,99198.28
2022-10-23T21:54:28.466Z,99182.56
2022-10-23T21:57:03.616Z,99211.75
2022-10-23T21:59:35.865Z,99221.59
2022-10-23T22:02:04.430Z,99203.56
2022-10-23T22:04:32.838Z,99212.75
2022-10-23T22:07:03.057Z,99214.84
2022-10-23T22:09:34.374Z,99232.19
2022-10-23T22:12:03.270Z,99224.13
2022-10-23T22:14:35.650Z,99215.34
2022-10-23T22:17:21.008Z,99225.31
2022-10-23T22:19:54.722Z,99226.31
2022-10-23T22:22:28.044Z,99237.41
2022-10-23T22:25:00.349Z,99200.53
2022-10-23T22:27:31.834Z,99207.44
2022-10-23T22:30:08.882Z,99217.91
2022-10-23T22:32:42.203Z,99221.16
2022-10-23T22:35:15.602Z,99233.59
2022-10-23T22:37:59.984Z,99199.28
2022-10-23T22:40:30.599Z,99222.69
2022-10-23T22:43:03.469Z,99256.25
2022-10-23T22:45:36.402Z,99228.97
2022-10-23T22:48:10.318Z,99199.06
2022-10-23T22:53:21.491Z,99232.63
2022-10-23T22:55:53.745Z,99205.78
2022-10-23T22:58:29.688Z,99219.56
2022-10-23T23:01:38.460Z,99193.81
2022-10-23T23:04:36.765Z,99250.50
2022-10-23T23:07:03.057Z,99219.69
2022-10-23T23:09:30.768Z,99201.44
2022-10-23T23:12:01.986Z,99204.03
2022-10-23T23:14:29.718Z,99195.28
2022-10-23T23:16:57.356Z,99229.03
2022-10-23T23:19:27.109Z,99183.69
2022-10-23T23:22:03.221Z,99204.69
2022-10-23T23:24:34.148Z,99206.50
2022-10-23T23:27:09.740Z,99188.34
2022-10-23T23:29:45.045Z,99201.88
2022-10-23T23:32:20.565Z,99194.84
2022-10-23T23:34:56.228Z,99229.56
2022-10-23T23:37:25.881Z,99205.59
2022-10-23T23:39:58.940Z,99206.59
2022-10-23T23:42:30.710Z,99233.16
2022-10-23T23:45:14.169Z,99217.50
2022-10-23T23:47:44.865Z,99209.69
2022-10-23T23:50:15.714Z,99258.25
2022-10-23T23:53:26.901Z,99205.28
2022-10-23T23:55:59.799Z,99235.91
2022-10-23T23:58:53.869Z,99250.00
